Richland, GA (31825)

6:33 PM EDT on July 02, 2015 (GMT -0400)
Lawson Army Air Field | | Change Station
CLOSE
Current Station
Airport
Location: Fort Benning,
Elevation: 233 ft
Nearby Weather Stations

Elev 233 ft 32.32 °N, 84.98 °W | Updated 35 minutes ago

Rain
Rain
79 °F
Feels Like 79 °F
N
6
Wind Variable Wind from Variable

Today
High -- | Low -- °F
--% Chance of Precip.
Yesterday
High -- | Low -- °F
Precip. -- in
6:36 AM 8:48 PM
Full, 99% visible
Pressure 30.01 in
Visibility 10.0 miles
Clouds Clear
Dew Point 74 °F
Humidity 83%
Rainfall 0.34 in
Snow Depth Not available.
UV 4 out of 12
Pollen 1.00 out of 12
Air Quality Not available.
Flu Activity Not available.
METAR KLSF 022158Z AUTO VRB05KT 10SM CLR 26/23 A3000 RMK AO2 SLP160 T02630232

More Conditions Fewer Conditions

Pressure 30.01 in
Visibility 10.0 miles
Clouds Clear
Dew Point 74 °F
Humidity 83%
Rainfall 0.34 in
Snow Depth Not available.
UV 4 out of 12
Pollen 1.00 out of 12
Air Quality Not available.
Flu Activity Not available.
METAR KLSF 022158Z AUTO VRB05KT 10SM CLR 26/23 A3000 RMK AO2 SLP160 T02630232

More Conditions Fewer Conditions

10-Day Weather Forecast

×

Almanac

Astronomy

Jul. 02, 2015 Rise Set
Actual Time
Civil Twilight
Nautical Twilight
Astronomical Twilight
Moon
Length of Visible Light
Length of Day
Tomorrow will be .
, % of the Moon is Illuminated

Today's Extremes

State Highs State Lows

Community

WunderPhotos

Upload Photos

1,834,562 photos uploaded!

WunderBlogs® & News

Nearby

Air Quality

  Air Quality AQ Index Pollutant
Not available.

Snow Depth

Station Depth Elevation

Earthquake Activity

City Distance Mag. Time & Date
Minimum magnitude displayed is 2.5.

Coastal Water Temperatures

Place Temperature

Stations

Nearby Weather Stations

Station Location Temp. Windchill Dew Point Humidity Wind Precip. Elev Updated Type